createdAt,value
2022-12-13T00:00:24.261Z,77.06
2022-12-13T00:03:47.253Z,76.87
2022-12-13T00:06:51.261Z,76.73
2022-12-13T00:09:54.246Z,76.88
2022-12-13T00:12:57.034Z,76.88
2022-12-13T00:16:03.024Z,76.95
2022-12-13T00:19:05.952Z,76.54
2022-12-13T00:22:08.710Z,76.39
2022-12-13T00:25:11.957Z,76.18
2022-12-13T00:28:16.150Z,76.31
2022-12-13T00:31:53.383Z,76.17
2022-12-13T00:34:43.053Z,76.23
2022-12-13T00:37:45.863Z,76.15
2022-12-13T00:40:49.048Z,76.12
2022-12-13T00:43:51.890Z,75.96
2022-12-13T00:46:54.855Z,75.94
2022-12-13T00:49:58.479Z,75.99
2022-12-13T00:53:03.088Z,76.07
2022-12-13T00:56:14.094Z,76.24
2022-12-13T00:59:17.394Z,76.57
2022-12-13T01:02:20.192Z,76.46
2022-12-13T01:05:46.063Z,76.47
2022-12-13T01:08:47.266Z,76.54
2022-12-13T01:11:50.540Z,76.46
2022-12-13T01:14:56.201Z,76.72
2022-12-13T01:18:00.004Z,76.56
2022-12-13T01:21:06.497Z,76.62
2022-12-13T01:24:09.940Z,76.93
2022-12-13T01:27:12.824Z,76.87
2022-12-13T01:30:15.637Z,76.90
2022-12-13T01:33:18.365Z,76.77
2022-12-13T01:36:26.948Z,76.73
2022-12-13T01:39:31.173Z,76.74
2022-12-13T01:42:41.303Z,76.69
2022-12-13T01:45:44.150Z,76.68
2022-12-13T01:48:53.500Z,76.75
2022-12-13T01:52:01.655Z,77.11
2022-12-13T01:55:07.641Z,77.08
2022-12-13T01:58:12.138Z,77.24
2022-12-13T02:01:16.945Z,77.34
2022-12-13T02:04:30.077Z,77.77
2022-12-13T02:07:35.474Z,77.59
2022-12-13T02:10:40.366Z,77.48
2022-12-13T02:13:44.113Z,77.57
2022-12-13T02:17:06.221Z,77.70
2022-12-13T02:20:40.580Z,77.75
2022-12-13T02:24:21.387Z,77.83
2022-12-13T02:27:51.053Z,77.73
2022-12-13T02:31:28.728Z,77.87
2022-12-13T02:34:50.118Z,77.58
2022-12-13T02:38:20.096Z,77.74
2022-12-13T02:41:37.043Z,77.62
2022-12-13T02:44:45.571Z,77.26
2022-12-13T02:47:55.977Z,77.25
2022-12-13T02:51:01.325Z,77.37
2022-12-13T02:54:04.829Z,76.95
2022-12-13T02:57:36.125Z,76.64
2022-12-13T03:00:54.359Z,76.69
2022-12-13T03:04:15.700Z,76.66
2022-12-13T03:07:28.706Z,76.47
2022-12-13T03:10:47.098Z,76.51
2022-12-13T03:13:56.677Z,76.70
2022-12-13T03:17:02.691Z,76.49
2022-12-13T03:20:12.747Z,76.27
2022-12-13T03:23:27.259Z,75.90
2022-12-13T03:26:30.164Z,75.83
2022-12-13T03:29:32.963Z,76.04
2022-12-13T03:32:35.811Z,75.94
2022-12-13T03:35:45.292Z,76.06
2022-12-13T03:38:52.441Z,76.06
2022-12-13T03:41:55.412Z,75.88
2022-12-13T03:44:58.338Z,76.31
2022-12-13T03:48:01.160Z,76.23
2022-12-13T03:51:04.422Z,76.03
2022-12-13T03:54:07.480Z,76.07
2022-12-13T03:57:10.212Z,76.32
2022-12-13T04:00:14.809Z,75.98
2022-12-13T04:03:17.690Z,75.77
2022-12-13T04:06:22.798Z,75.71
2022-12-13T04:09:26.806Z,75.86
2022-12-13T04:12:48.738Z,75.73
2022-12-13T04:15:51.823Z,75.81
2022-12-13T04:18:54.773Z,75.61
2022-12-13T04:21:57.597Z,75.86
2022-12-13T04:25:00.589Z,75.16
2022-12-13T04:28:03.991Z,75.08
2022-12-13T04:31:06.969Z,75.26
2022-12-13T04:34:09.831Z,75.08
2022-12-13T04:37:12.611Z,75.44
2022-12-13T04:40:21.653Z,75.25
2022-12-13T04:43:24.722Z,75.13
2022-12-13T04:46:27.634Z,74.96
2022-12-13T04:49:31.325Z,74.53
2022-12-13T04:52:34.104Z,74.62
2022-12-13T04:55:42.532Z,74.86
2022-12-13T04:58:45.653Z,74.84
2022-12-13T05:01:49.306Z,74.39
2022-12-13T05:04:53.781Z,74.62
2022-12-13T05:07:57.511Z,74.56
2022-12-13T05:11:00.313Z,74.65
2022-12-13T05:14:03.276Z,74.45
2022-12-13T05:17:06.125Z,74.67
2022-12-13T05:20:09.419Z,74.88
2022-12-13T05:23:12.224Z,75.19
2022-12-13T05:26:15.035Z,75.12
2022-12-13T05:29:19.417Z,75.19
2022-12-13T05:32:22.269Z,75.48
2022-12-13T05:35:25.246Z,75.13
2022-12-13T05:38:28.209Z,75.48
2022-12-13T05:41:34.452Z,75.38
2022-12-13T05:44:37.233Z,75.65
2022-12-13T05:47:40.048Z,75.59
2022-12-13T05:50:43.918Z,75.58
2022-12-13T05:53:53.049Z,75.84
2022-12-13T05:56:56.843Z,75.73
2022-12-13T05:59:59.663Z,75.20
2022-12-13T06:03:02.675Z,75.70
2022-12-13T06:06:07.467Z,75.41
2022-12-13T06:09:10.265Z,75.55
2022-12-13T06:12:31.615Z,75.70
2022-12-13T06:15:35.286Z,75.91
2022-12-13T06:18:38.160Z,75.78
2022-12-13T06:21:46.046Z,76.15
2022-12-13T06:24:49.616Z,76.06
2022-12-13T06:27:53.419Z,76.17
2022-12-13T06:30:59.986Z,76.07
2022-12-13T06:34:14.216Z,76.60
2022-12-13T06:37:17.869Z,76.96
2022-12-13T06:40:23.214Z,76.64
2022-12-13T06:43:26.381Z,76.94
2022-12-13T06:46:29.560Z,76.97
2022-12-13T06:49:32.665Z,77.35
2022-12-13T06:52:36.753Z,77.53
2022-12-13T06:55:39.597Z,77.19
2022-12-13T06:58:43.174Z,77.15
2022-12-13T07:01:50.603Z,77.32
2022-12-13T07:04:55.078Z,77.60
2022-12-13T07:07:58.040Z,77.61
2022-12-13T07:11:00.832Z,77.51
2022-12-13T07:14:03.726Z,77.80
2022-12-13T07:17:06.532Z,77.99
2022-12-13T07:20:10.475Z,78.47
2022-12-13T07:23:14.148Z,78.37
2022-12-13T07:26:17.598Z,78.29
2022-12-13T07:29:22.081Z,78.03
2022-12-13T07:32:25.765Z,78.10
2022-12-13T07:35:28.942Z,78.45
2022-12-13T07:38:31.731Z,78.43
2022-12-13T07:41:34.620Z,78.39
2022-12-13T07:44:40.903Z,78.22
2022-12-13T07:47:44.961Z,78.30
2022-12-13T07:50:54.592Z,78.26
2022-12-13T07:53:57.783Z,77.99
2022-12-13T07:57:04.332Z,78.20
2022-12-13T08:00:08.270Z,78.04
2022-12-13T08:03:17.808Z,78.00
2022-12-13T08:06:28.653Z,78.08
2022-12-13T08:09:31.486Z,78.18
2022-12-13T08:12:34.331Z,78.38
2022-12-13T08:15:37.187Z,78.13
2022-12-13T08:18:40.358Z,78.10
2022-12-13T08:22:01.505Z,78.11
2022-12-13T08:25:06.655Z,78.12
2022-12-13T08:28:09.510Z,78.40
2022-12-13T08:31:13.589Z,78.29
2022-12-13T08:34:16.462Z,78.38
2022-12-13T08:37:19.429Z,78.41
2022-12-13T08:40:22.309Z,78.40
2022-12-13T08:43:25.535Z,78.34
2022-12-13T08:46:28.443Z,78.05
2022-12-13T08:49:31.488Z,78.16
2022-12-13T08:52:40.093Z,77.72
2022-12-13T08:55:44.423Z,77.85
2022-12-13T08:58:53.667Z,77.80
2022-12-13T09:02:00.207Z,77.62
2022-12-13T09:05:09.353Z,77.60
2022-12-13T09:08:24.679Z,77.58
2022-12-13T09:11:34.669Z,77.31
2022-12-13T09:14:45.255Z,77.10
2022-12-13T09:17:52.657Z,77.55
2022-12-13T09:21:11.388Z,77.43
2022-12-13T09:24:23.783Z,77.04
2022-12-13T09:27:28.820Z,77.37
2022-12-13T09:30:31.994Z,76.90
2022-12-13T09:33:40.658Z,77.08
2022-12-13T09:36:46.209Z,77.05
2022-12-13T09:39:55.501Z,77.13
2022-12-13T09:43:13.702Z,77.18
2022-12-13T09:46:44.505Z,77.22
2022-12-13T09:49:53.084Z,76.78
2022-12-13T09:53:00.075Z,76.83
2022-12-13T09:56:10.819Z,76.81
2022-12-13T09:59:14.624Z,76.69
2022-12-13T10:02:25.391Z,76.71
2022-12-13T10:05:34.026Z,76.61
2022-12-13T10:08:47.290Z,76.68
2022-12-13T10:11:53.360Z,76.91
2022-12-13T10:15:00.975Z,76.73
2022-12-13T10:18:04.848Z,76.54
2022-12-13T10:21:15.787Z,76.71
2022-12-13T10:24:27.728Z,76.98
2022-12-13T10:27:47.412Z,76.97
2022-12-13T10:30:50.983Z,77.18
2022-12-13T10:33:57.312Z,77.18
2022-12-13T10:37:00.189Z,77.21
2022-12-13T10:40:04.176Z,77.17
2022-12-13T10:43:16.101Z,77.35
2022-12-13T10:46:24.859Z,77.75
2022-12-13T10:49:37.421Z,78.27
2022-12-13T10:52:48.122Z,77.93
2022-12-13T10:55:56.313Z,78.29
2022-12-13T10:59:22.825Z,78.28
2022-12-13T11:02:33.077Z,78.21
2022-12-13T11:05:40.897Z,78.48
2022-12-13T11:08:44.575Z,78.74
2022-12-13T11:11:51.445Z,78.56
2022-12-13T11:15:06.432Z,78.71
2022-12-13T11:18:21.817Z,78.77
2022-12-13T11:21:35.243Z,78.72
2022-12-13T11:24:42.382Z,78.79
2022-12-13T11:28:03.435Z,78.77
2022-12-13T11:31:54.707Z,78.60
2022-12-13T11:35:02.853Z,78.27
2022-12-13T11:38:37.134Z,78.17
2022-12-13T11:41:55.582Z,78.46
2022-12-13T11:45:22.289Z,78.14
2022-12-13T11:48:53.435Z,78.48
2022-12-13T11:52:03.026Z,78.14
2022-12-13T11:55:21.411Z,77.97
2022-12-13T11:59:02.503Z,77.64
2022-12-13T12:02:16.331Z,77.85
2022-12-13T12:05:32.639Z,77.47
2022-12-13T12:09:06.509Z,77.35
2022-12-13T12:12:42.240Z,77.46
2022-12-13T12:16:02.068Z,77.27
2022-12-13T12:19:15.120Z,77.32
2022-12-13T12:22:41.151Z,76.92
2022-12-13T12:26:03.682Z,77.20
2022-12-13T12:29:26.109Z,77.16
2022-12-13T12:32:52.209Z,77.15
2022-12-13T12:36:09.183Z,76.97
2022-12-13T12:39:38.392Z,76.62
2022-12-13T12:43:16.145Z,76.58
2022-12-13T12:46:25.637Z,76.70
2022-12-13T12:49:50.144Z,76.89
2022-12-13T12:53:11.999Z,76.61
2022-12-13T12:56:39.462Z,76.35
2022-12-13T13:00:09.979Z,76.68
2022-12-13T13:03:23.215Z,76.69
2022-12-13T13:06:32.459Z,76.45
2022-12-13T13:09:36.879Z,76.41
2022-12-13T13:12:43.073Z,76.23
2022-12-13T13:15:55.832Z,76.35
2022-12-13T13:19:00.986Z,76.67
2022-12-13T13:22:05.420Z,76.80
2022-12-13T13:25:32.487Z,76.84
2022-12-13T13:28:35.310Z,76.87
2022-12-13T13:32:03.801Z,76.99
2022-12-13T13:35:25.604Z,76.85
2022-12-13T13:38:49.583Z,77.40
2022-12-13T13:41:56.829Z,77.09
2022-12-13T13:45:22.814Z,77.28
2022-12-13T13:48:25.671Z,77.07
2022-12-13T13:52:24.981Z,77.22
2022-12-13T13:55:49.812Z,77.10
2022-12-13T13:59:23.258Z,77.16
2022-12-13T14:02:49.521Z,76.94
2022-12-13T14:06:14.557Z,76.87
2022-12-13T14:09:38.765Z,77.19
2022-12-13T14:13:26.957Z,77.22
2022-12-13T14:16:48.952Z,77.30
2022-12-13T14:20:19.464Z,77.60
2022-12-13T14:23:36.272Z,77.49
2022-12-13T14:27:07.427Z,77.19
2022-12-13T14:30:26.834Z,77.23
2022-12-13T14:33:31.753Z,76.72
2022-12-13T14:36:36.640Z,76.83
2022-12-13T14:39:45.276Z,76.94
2022-12-13T14:42:55.473Z,77.01
2022-12-13T14:46:07.861Z,77.20
2022-12-13T14:49:12.804Z,77.06
2022-12-13T14:52:27.175Z,76.97
2022-12-13T14:55:33.615Z,77.03
2022-12-13T14:58:38.410Z,77.08
2022-12-13T15:01:43.248Z,76.97
2022-12-13T15:04:47.482Z,76.83
2022-12-13T15:07:51.750Z,77.19
2022-12-13T15:10:57.930Z,77.24
2022-12-13T15:14:00.807Z,76.82
2022-12-13T15:17:05.001Z,76.56
2022-12-13T15:20:20.526Z,76.96
2022-12-13T15:23:29.728Z,76.63
2022-12-13T15:26:34.251Z,76.49
2022-12-13T15:29:37.284Z,76.34
2022-12-13T15:33:04.592Z,76.62
2022-12-13T15:36:27.080Z,76.68
2022-12-13T15:39:31.360Z,76.35
2022-12-13T15:42:37.275Z,76.62
2022-12-13T15:45:40.181Z,76.48
2022-12-13T15:48:48.658Z,76.61
2022-12-13T15:51:57.491Z,76.04
2022-12-13T15:55:09.402Z,76.19
2022-12-13T15:58:34.188Z,75.88
2022-12-13T16:01:38.029Z,75.86
2022-12-13T16:04:40.992Z,76.30
2022-12-13T16:07:44.003Z,76.20
2022-12-13T16:10:49.264Z,76.01
2022-12-13T16:13:52.160Z,75.98
2022-12-13T16:17:08.479Z,76.17
2022-12-13T16:20:17.882Z,76.28
2022-12-13T16:23:27.268Z,76.19
2022-12-13T16:26:31.406Z,76.24
2022-12-13T16:29:34.192Z,76.61
2022-12-13T16:33:02.808Z,76.61
2022-12-13T16:35:59.852Z,76.66
2022-12-13T16:39:04.713Z,76.83
2022-12-13T16:42:07.476Z,76.72
2022-12-13T16:48:36.807Z,76.71
2022-12-13T16:51:42.484Z,76.80
2022-12-13T16:54:51.319Z,76.66
2022-12-13T16:58:06.328Z,76.75
2022-12-13T17:01:11.232Z,76.96
2022-12-13T17:04:20.655Z,77.16
2022-12-13T17:07:24.106Z,76.90
2022-12-13T17:10:27.875Z,77.07
2022-12-13T17:13:30.731Z,77.47
2022-12-13T17:16:34.053Z,77.17
2022-12-13T17:19:38.065Z,77.13
2022-12-13T17:22:41.989Z,77.26
2022-12-13T17:25:44.816Z,77.43
2022-12-13T17:29:00.731Z,77.40
2022-12-13T17:32:04.607Z,76.86
2022-12-13T17:35:08.108Z,76.99
2022-12-13T17:38:12.930Z,76.74
2022-12-13T17:41:16.390Z,76.75
2022-12-13T17:44:19.550Z,77.21
2022-12-13T17:47:22.683Z,77.43
2022-12-13T17:50:25.563Z,76.93
2022-12-13T17:53:28.922Z,76.99
2022-12-13T17:56:31.965Z,76.77
2022-12-13T17:59:41.151Z,76.70
2022-12-13T18:02:55.428Z,76.99
2022-12-13T18:06:00.015Z,76.88
2022-12-13T18:09:03.184Z,76.97
2022-12-13T18:12:08.467Z,77.20
2022-12-13T18:15:12.187Z,76.83
2022-12-13T18:18:15.104Z,76.94
2022-12-13T18:21:18.955Z,76.65
2022-12-13T18:24:21.940Z,76.73
2022-12-13T18:27:24.857Z,76.45
2022-12-13T18:30:28.276Z,76.56
2022-12-13T18:33:31.615Z,76.68
2022-12-13T18:36:35.056Z,76.47
2022-12-13T18:39:37.890Z,76.32
2022-12-13T18:42:41.016Z,76.22
2022-12-13T18:45:44.777Z,76.42
2022-12-13T18:48:47.626Z,76.42
2022-12-13T18:51:50.458Z,76.32
2022-12-13T18:54:54.353Z,76.65
2022-12-13T18:57:57.726Z,76.58
2022-12-13T19:01:01.799Z,76.47
2022-12-13T19:04:04.779Z,76.49
2022-12-13T19:07:09.278Z,76.55
2022-12-13T19:10:12.145Z,76.25
2022-12-13T19:13:14.954Z,76.29
2022-12-13T19:16:20.981Z,76.28
2022-12-13T19:19:23.904Z,76.05
2022-12-13T19:22:29.515Z,76.23
2022-12-13T19:25:32.345Z,76.29
2022-12-13T19:28:37.196Z,76.06
2022-12-13T19:31:41.138Z,75.84
2022-12-13T19:34:43.996Z,75.71
2022-12-13T19:37:46.911Z,75.73
2022-12-13T19:40:49.784Z,75.93
2022-12-13T19:43:53.835Z,75.55
2022-12-13T19:46:57.217Z,75.36
2022-12-13T19:50:00.386Z,75.64
2022-12-13T19:53:05.664Z,75.28
2022-12-13T19:56:11.076Z,75.21
2022-12-13T19:59:13.882Z,75.29
2022-12-13T20:02:16.747Z,74.98
2022-12-13T20:05:19.879Z,74.57
2022-12-13T20:08:22.682Z,74.98
2022-12-13T20:11:25.489Z,75.15
2022-12-13T20:14:29.219Z,74.76
2022-12-13T20:17:32.808Z,74.77
2022-12-13T20:21:09.420Z,74.48
2022-12-13T20:23:58.950Z,74.24
2022-12-13T20:27:02.158Z,74.66
2022-12-13T20:30:06.429Z,74.63
2022-12-13T20:33:09.537Z,74.82
2022-12-13T20:36:27.206Z,74.78
2022-12-13T20:39:30.335Z,74.41
2022-12-13T20:42:33.730Z,74.66
2022-12-13T20:45:36.519Z,74.69
2022-12-13T20:48:42.385Z,74.41
2022-12-13T20:51:45.279Z,74.35
2022-12-13T20:54:49.533Z,74.60
2022-12-13T20:57:53.078Z,74.32
2022-12-13T21:00:56.027Z,74.60
2022-12-13T21:04:01.071Z,74.49
2022-12-13T21:07:03.902Z,74.36
2022-12-13T21:10:07.251Z,74.59
2022-12-13T21:13:10.061Z,74.69
2022-12-13T21:16:13.048Z,74.66
2022-12-13T21:19:19.448Z,74.08
2022-12-13T21:22:22.400Z,74.10
2022-12-13T21:25:25.175Z,74.54
2022-12-13T21:28:28.115Z,74.54
2022-12-13T21:31:31.079Z,74.36
2022-12-13T21:34:33.956Z,74.10
2022-12-13T21:37:36.785Z,74.30
2022-12-13T21:40:48.167Z,73.91
2022-12-13T21:43:51.650Z,74.23
2022-12-13T21:47:12.000Z,74.29
2022-12-13T21:50:15.087Z,74.36
2022-12-13T21:53:17.894Z,74.10
2022-12-13T21:56:42.963Z,74.08
2022-12-13T21:59:46.101Z,74.23
2022-12-13T22:02:49.033Z,74.11
2022-12-13T22:05:51.916Z,74.30
2022-12-13T22:08:54.667Z,74.22
2022-12-13T22:11:57.789Z,74.03
2022-12-13T22:15:00.699Z,73.96
2022-12-13T22:18:03.708Z,73.62
2022-12-13T22:21:07.845Z,73.78
2022-12-13T22:24:12.312Z,73.93
2022-12-13T22:27:15.253Z,73.84
2022-12-13T22:30:18.033Z,73.78
2022-12-13T22:33:20.960Z,73.79
2022-12-13T22:36:24.403Z,73.76
2022-12-13T22:39:27.222Z,74.17
2022-12-13T22:42:30.143Z,74.15
2022-12-13T22:45:33.423Z,74.19
2022-12-13T22:48:36.706Z,73.90
2022-12-13T22:51:39.628Z,73.95
2022-12-13T22:54:42.506Z,74.05
2022-12-13T22:57:48.680Z,74.24
2022-12-13T23:00:51.881Z,74.53
2022-12-13T23:03:55.545Z,74.28
2022-12-13T23:06:58.368Z,74.42
2022-12-13T23:10:01.214Z,74.30
2022-12-13T23:13:04.085Z,73.99
2022-12-13T23:16:07.279Z,74.22
2022-12-13T23:22:36.392Z,74.35
2022-12-13T23:25:43.538Z,74.15
2022-12-13T23:28:56.438Z,74.05
2022-12-13T23:32:00.011Z,74.17
2022-12-13T23:35:03.148Z,74.54
2022-12-13T23:38:05.967Z,74.63
2022-12-13T23:41:11.983Z,74.59
2022-12-13T23:44:15.018Z,74.60
2022-12-13T23:47:17.777Z,74.42
2022-12-13T23:50:20.648Z,74.49
2022-12-13T23:53:27.748Z,74.51
2022-12-13T23:56:30.589Z,74.49
2022-12-13T23:59:33.367Z,74.59
